Queen Elizabeth — ZCEF2 — position and weather

sailwx.info

Track history (hours):
 
Tides and Currents Weather Stations Pressure Air Temp Water Temp Dewpoint Dewpoint Depression Visibility Wind Speed Wind Dir Waves Ship Positions

Queen Elizabeth

Last reported at 2018-Dec-11 22:18 UTC. Time now 2018-Dec-12 03:49 UTC.
Position N 39°29' W 009°48'.

Length 294 m; draft 8 m.

Type: Ship. MMSI: 310625000.

Date/timePositionNaut miles runAvg speedWind from/ knotsBaromVisibWave heightAir tempDewpointWater temp
2018-Dec-11 22:18N 39°29' W 009°48'721.0
2018-Dec-11 21:59N 39°23' W 009°47'1021.0
2018-Dec-11 21:30N 39°13' W 009°45'1121.0
2018-Dec-11 21:00N 39°03' W 009°44'1020.9
2018-Dec-11 20:30N 38°52' W 009°42'918.5
2018-Dec-11 20:00N 38°43' W 009°41'713.8
2018-Dec-11 19:30N 38°38' W 009°36'815.7
2018-Dec-11 19:00N 38°37' W 009°26'815.6
2018-Dec-11 18:30N 38°41' W 009°17'612.5
2018-Dec-11 18:00N 38°42' W 009°09'2 3.5
2018-Dec-11 17:30N 38°43' W 009°08'0 0.0
2018-Dec-11 17:00N 38°43' W 009°08'0 0.0
2018-Dec-11 16:30N 38°43' W 009°08'0 0.0
2018-Dec-11 16:00N 38°43' W 009°08'0 0.0
2018-Dec-11 15:30N 38°43' W 009°08'0 0.0
2018-Dec-11 15:00N 38°43' W 009°08'0 0.0
2018-Dec-11 14:30N 38°43' W 009°08'0 0.0
2018-Dec-11 14:00N 38°43' W 009°08'0 0.0
2018-Dec-11 13:30N 38°43' W 009°08'0 0.0
2018-Dec-11 13:00N 38°43' W 009°08'0 0.0
2018-Dec-11 12:30N 38°43' W 009°08'0 0.0
2018-Dec-11 12:00N 38°43' W 009°08'0 0.0
2018-Dec-11 11:30N 38°43' W 009°08'0 0.0
2018-Dec-11 11:00N 38°43' W 009°08'0 0.0
2018-Dec-11 10:30N 38°43' W 009°08'0 0.0
2018-Dec-11 10:00N 38°43' W 009°08'0 0.0
2018-Dec-11 09:30N 38°43' W 009°08'0 0.0
2018-Dec-11 09:00N 38°43' W 009°08'0 0.0
2018-Dec-11 08:30N 38°43' W 009°08'0 0.0
2018-Dec-11 08:00N 38°43' W 009°08'0 0.6
2018-Dec-11 07:31N 38°42' W 009°08'4 8.1
2018-Dec-11 07:00N 38°41' W 009°13'510.9
2018-Dec-11 06:31N 38°39' W 009°19'714.0
2018-Dec-11 06:00N 38°34' W 009°25'612.6
2018-Dec-11 05:30N 38°29' W 009°29'611.5
2018-Dec-11 05:00N 38°23' W 009°31'611.6
2018-Dec-11 04:30N 38°17' W 009°32'713.4
2018-Dec-11 04:00N 38°11' W 009°35'713.5
2018-Dec-11 03:30N 38°05' W 009°38'713.9
2018-Dec-11 03:00N 37°58' W 009°41'714.8
2018-Dec-11 02:30N 37°51' W 009°44'914.7
2018-Dec-11 01:55N 37°43' W 009°46'1914.4
2018-Dec-11 00:38N 37°25' W 009°55'314.1
2018-Dec-11 00:27N 37°23' W 009°56'50117.1
2018-Dec-09 19:13N 29°28' W 013°06'2418.2
2018-Dec-09 17:55N 29°06' W 013°15'718.0
2018-Dec-09 17:30N 29°02' W 013°22'816.7
2018-Dec-09 17:00N 28°58' W 013°30'2 2.6
2018-Dec-09 16:25N 28°58' W 013°32'0 0.0
2018-Dec-09 15:55N 28°58' W 013°32'0 0.0
2018-Dec-09 15:25N 28°58' W 013°32'0 0.0
2018-Dec-09 14:49N 28°58' W 013°32'0 0.0
2018-Dec-09 14:13N 28°58' W 013°32'0 0.0
2018-Dec-09 13:55N 28°58' W 013°32'0 0.0
2018-Dec-09 13:13N 28°58' W 013°32'0 0.0
2018-Dec-09 12:43N 28°58' W 013°32'0 0.0
2018-Dec-09 12:19N 28°58' W 013°32'0 0.0
2018-Dec-09 11:55N 28°58' W 013°32'0 0.0
2018-Dec-09 11:13N 28°58' W 013°32'0 0.0
2018-Dec-09 10:07N 28°58' W 013°32'0 0.0
2018-Dec-09 08:37N 28°58' W 013°32'0 0.0
2018-Dec-09 08:13N 28°58' W 013°32'0 0.0
2018-Dec-09 07:55N 28°58' W 013°32'0 0.0
2018-Dec-09 07:25N 28°58' W 013°32'1 3.0
2018-Dec-09 06:59N 28°57' W 013°32'611.9
2018-Dec-09 06:30N 28°51' W 013°34'712.8
2018-Dec-09 05:58N 28°45' W 013°37'612.8
2018-Dec-09 05:30N 28°39' W 013°39'713.2
2018-Dec-09 04:59N 28°33' W 013°41'713.4
2018-Dec-09 04:30N 28°26' W 013°43'713.6
2018-Dec-09 03:59N 28°20' W 013°46'713.7
2018-Dec-09 03:29N 28°13' W 013°48'612.7
2018-Dec-09 02:59N 28°08' W 013°52'613.3
2018-Dec-09 02:30N 28°04' W 013°58'713.8
2018-Dec-09 01:58N 28°00' W 014°05'713.7
2018-Dec-09 01:29N 27°57' W 014°12'613.3
2018-Dec-09 01:00N 27°53' W 014°18'713.6
2018-Dec-09 00:30N 27°50' W 014°24'713.6
2018-Dec-09 00:00N 27°47' W 014°31'1213.0
2018-Dec-08 23:04N 27°43' W 014°44'213.7
2018-Dec-08 22:57N 27°43' W 014°46'63 3.0
2018-Dec-08 02:03N 27°42' W 015°57'114.2
2018-Dec-08 02:00N 27°42' W 015°58'4213.7
2018-Dec-07 22:57N 27°54' W 016°43'3813.8
2018-Dec-07 20:11N 28°24' W 017°10'56 3.8
2018-Dec-07 05:31N 29°16' W 017°35'115.7
2018-Dec-07 05:28N 29°17' W 017°35'816.6
2018-Dec-07 05:00N 29°24' W 017°33'816.5
2018-Dec-07 04:29N 29°33' W 017°32'1516.6
2018-Dec-07 03:36N 29°47' W 017°29'116.4
2018-Dec-07 03:31N 29°49' W 017°28'2217.0
2018-Dec-07 02:13N 30°10' W 017°24'4017.2
2018-Dec-06 23:55N 30°50' W 017°16'1518.4
2018-Dec-06 23:05N 31°05' W 017°13'118.5
2018-Dec-06 23:00N 31°06' W 017°13'2319.0
2018-Dec-06 21:48N 31°28' W 017°08'618.9
2018-Dec-06 21:30N 31°34' W 017°07'1019.1
2018-Dec-06 21:00N 31°44' W 017°05'56 3.9
2018-Dec-06 06:41N 32°38' W 016°49'14113.6
2018-Dec-05 20:19N 34°38' W 015°21'3414.2
2018-Dec-05 17:56N 35°09' W 015°05'714.3
2018-Dec-05 17:25N 35°16' W 015°02'714.4
2018-Dec-05 16:57N 35°22' W 014°58'38415.7
2018-Dec-04 16:29N 41°15' W 011°48'1117.3
2018-Dec-04 15:51N 41°26' W 011°42'59716.1
2018-Dec-03 02:46N 49°42' W 003°47'414.5
2018-Dec-03 02:29N 49°44' W 003°42'814.5
2018-Dec-03 01:57N 49°48' W 003°32'614.5
2018-Dec-03 01:31N 49°51' W 003°23'714.9
2018-Dec-03 01:00N 49°54' W 003°12'815.4
2018-Dec-03 00:31N 49°58' W 003°01'815.9
2018-Dec-03 00:01N 50°01' W 002°50'816.4
2018-Dec-02 23:31N 50°04' W 002°38'1817.4
2018-Dec-02 22:28N 50°10' W 002°12'817.8
2018-Dec-02 22:01N 50°14' W 002°00'917.7
2018-Dec-02 21:30N 50°18' W 001°48'917.5
2018-Dec-02 21:00N 50°22' W 001°36'917.2
2018-Dec-02 20:31N 50°26' W 001°24'817.0
2018-Dec-02 20:00N 50°30' W 001°12'816.5
2018-Dec-02 19:31N 50°34' W 001°01'612.9
2018-Dec-02 19:01N 50°40' W 000°58'510.5
2018-Dec-02 18:30N 50°44' W 001°04'917.1
2018-Dec-02 18:00N 50°46' W 001°17'5 9.5
2018-Dec-02 17:30N 50°51' W 001°20'5 9.3
2018-Dec-02 17:01N 50°54' W 001°25'1 1.2
2018-Dec-02 16:26N 50°54' W 001°26'0 0.0
2018-Dec-02 15:50N 50°54' W 001°26'0 0.0
2018-Dec-02 15:17N 50°54' W 001°26'0 0.0
2018-Dec-02 14:56N 50°54' W 001°26'0 0.0
2018-Dec-02 14:29N 50°54' W 001°26'0 0.0
2018-Dec-02 13:50N 50°54' W 001°26'0 0.0
2018-Dec-02 13:26N 50°54' W 001°26'0 0.0
2018-Dec-02 12:56N 50°54' W 001°26'0 0.0
2018-Dec-02 12:29N 50°54' W 001°26'0 0.0
2018-Dec-02 11:59N 50°54' W 001°26'0 0.0
2018-Dec-02 11:02N 50°54' W 001°26'0 0.0
2018-Dec-02 10:56N 50°54' W 001°26'0 0.0
2018-Dec-02 10:23N 50°54' W 001°26'0 0.0
2018-Dec-02 09:50N 50°54' W 001°26'0 0.0
2018-Dec-02 09:29N 50°54' W 001°26'0 0.0
2018-Dec-02 08:59N 50°54' W 001°26'0 0.0
2018-Dec-02 08:29N 50°54' W 001°26'0 0.0
2018-Dec-02 07:59N 50°54' W 001°26'0 0.0
2018-Dec-02 07:23N 50°54' W 001°26'0 0.0
2018-Dec-02 06:56N 50°54' W 001°26'0 0.1
2018-Dec-02 06:30N 50°54' W 001°26'2 4.4
2018-Dec-02 06:00N 50°53' W 001°23'5 9.6
2018-Dec-02 05:30N 50°49' W 001°18'4 8.5
2018-Dec-02 05:00N 50°46' W 001°14'816.7
2018-Dec-02 04:30N 50°43' W 001°01'612.1
2018-Dec-02 04:01N 50°39' W 000°55'611.9
2018-Dec-02 03:30N 50°36' W 000°47'715.0
2018-Dec-02 03:00N 50°34' W 000°36'815.0
2018-Dec-02 02:30N 50°32' W 000°24'815.4
2018-Dec-02 01:58N 50°32' W 000°11'816.3
2018-Dec-02 01:27N 50°33' E 000°02'817.7
2018-Dec-02 01:00N 50°35' E 000°15'918.5
2018-Dec-02 00:30N 50°37' E 000°28'918.7
2018-Dec-02 00:00N 50°41' E 000°42'918.9
2018-Dec-01 23:30N 50°45' E 000°55'918.7
2018-Dec-01 23:00N 50°51' E 001°07'918.3
2018-Dec-01 22:30N 50°56' E 001°19'  
Track history (hours):
 
Tides and Currents Weather Stations Pressure Air Temp Water Temp Dewpoint Dewpoint Depression Visibility Wind Speed Wind Dir Waves Ship Positions

Queen Elizabeth

Last reported at 2018-Dec-11 22:18 UTC. Time now 2018-Dec-12 03:49 UTC.
Position N 39°29' W 009°48'.

Length 294 m; draft 8 m.

Type: Ship. MMSI: 310625000.

Date/timePositionNaut miles runAvg speedWind from/ knotsBaromVisibWave heightAir tempDewpointWater temp
2018-Dec-11 22:18N 39°29' W 009°48'721.0
2018-Dec-11 21:59N 39°23' W 009°47'1021.0
2018-Dec-11 21:30N 39°13' W 009°45'1121.0
2018-Dec-11 21:00N 39°03' W 009°44'1020.9
2018-Dec-11 20:30N 38°52' W 009°42'918.5
2018-Dec-11 20:00N 38°43' W 009°41'713.8
2018-Dec-11 19:30N 38°38' W 009°36'815.7
2018-Dec-11 19:00N 38°37' W 009°26'815.6
2018-Dec-11 18:30N 38°41' W 009°17'612.5
2018-Dec-11 18:00N 38°42' W 009°09'2 3.5
2018-Dec-11 17:30N 38°43' W 009°08'0 0.0
2018-Dec-11 17:00N 38°43' W 009°08'0 0.0
2018-Dec-11 16:30N 38°43' W 009°08'0 0.0
2018-Dec-11 16:00N 38°43' W 009°08'0 0.0
2018-Dec-11 15:30N 38°43' W 009°08'0 0.0
2018-Dec-11 15:00N 38°43' W 009°08'0 0.0
2018-Dec-11 14:30N 38°43' W 009°08'0 0.0
2018-Dec-11 14:00N 38°43' W 009°08'0 0.0
2018-Dec-11 13:30N 38°43' W 009°08'0 0.0
2018-Dec-11 13:00N 38°43' W 009°08'0 0.0
2018-Dec-11 12:30N 38°43' W 009°08'0 0.0
2018-Dec-11 12:00N 38°43' W 009°08'0 0.0
2018-Dec-11 11:30N 38°43' W 009°08'0 0.0
2018-Dec-11 11:00N 38°43' W 009°08'0 0.0
2018-Dec-11 10:30N 38°43' W 009°08'0 0.0
2018-Dec-11 10:00N 38°43' W 009°08'0 0.0
2018-Dec-11 09:30N 38°43' W 009°08'0 0.0
2018-Dec-11 09:00N 38°43' W 009°08'0 0.0
2018-Dec-11 08:30N 38°43' W 009°08'0 0.0
2018-Dec-11 08:00N 38°43' W 009°08'0 0.6
2018-Dec-11 07:31N 38°42' W 009°08'4 8.1
2018-Dec-11 07:00N 38°41' W 009°13'510.9
2018-Dec-11 06:31N 38°39' W 009°19'714.0
2018-Dec-11 06:00N 38°34' W 009°25'612.6
2018-Dec-11 05:30N 38°29' W 009°29'611.5
2018-Dec-11 05:00N 38°23' W 009°31'611.6
2018-Dec-11 04:30N 38°17' W 009°32'713.4
2018-Dec-11 04:00N 38°11' W 009°35'713.5
2018-Dec-11 03:30N 38°05' W 009°38'713.9
2018-Dec-11 03:00N 37°58' W 009°41'714.8
2018-Dec-11 02:30N 37°51' W 009°44'914.7
2018-Dec-11 01:55N 37°43' W 009°46'1914.4
2018-Dec-11 00:38N 37°25' W 009°55'314.1
2018-Dec-11 00:27N 37°23' W 009°56'50117.1
2018-Dec-09 19:13N 29°28' W 013°06'2418.2
2018-Dec-09 17:55N 29°06' W 013°15'718.0
2018-Dec-09 17:30N 29°02' W 013°22'816.7
2018-Dec-09 17:00N 28°58' W 013°30'2 2.6
2018-Dec-09 16:25N 28°58' W 013°32'0 0.0
2018-Dec-09 15:55N 28°58' W 013°32'0 0.0
2018-Dec-09 15:25N 28°58' W 013°32'0 0.0
2018-Dec-09 14:49N 28°58' W 013°32'0 0.0
2018-Dec-09 14:13N 28°58' W 013°32'0 0.0
2018-Dec-09 13:55N 28°58' W 013°32'0 0.0
2018-Dec-09 13:13N 28°58' W 013°32'0 0.0
2018-Dec-09 12:43N 28°58' W 013°32'0 0.0
2018-Dec-09 12:19N 28°58' W 013°32'0 0.0
2018-Dec-09 11:55N 28°58' W 013°32'0 0.0
2018-Dec-09 11:13N 28°58' W 013°32'0 0.0
2018-Dec-09 10:07N 28°58' W 013°32'0 0.0
2018-Dec-09 08:37N 28°58' W 013°32'0 0.0
2018-Dec-09 08:13N 28°58' W 013°32'0 0.0
2018-Dec-09 07:55N 28°58' W 013°32'0 0.0
2018-Dec-09 07:25N 28°58' W 013°32'1 3.0
2018-Dec-09 06:59N 28°57' W 013°32'611.9
2018-Dec-09 06:30N 28°51' W 013°34'712.8
2018-Dec-09 05:58N 28°45' W 013°37'612.8
2018-Dec-09 05:30N 28°39' W 013°39'713.2
2018-Dec-09 04:59N 28°33' W 013°41'713.4
2018-Dec-09 04:30N 28°26' W 013°43'713.6
2018-Dec-09 03:59N 28°20' W 013°46'713.7
2018-Dec-09 03:29N 28°13' W 013°48'612.7
2018-Dec-09 02:59N 28°08' W 013°52'613.3
2018-Dec-09 02:30N 28°04' W 013°58'713.8
2018-Dec-09 01:58N 28°00' W 014°05'713.7
2018-Dec-09 01:29N 27°57' W 014°12'613.3
2018-Dec-09 01:00N 27°53' W 014°18'713.6
2018-Dec-09 00:30N 27°50' W 014°24'713.6
2018-Dec-09 00:00N 27°47' W 014°31'1213.0
2018-Dec-08 23:04N 27°43' W 014°44'213.7
2018-Dec-08 22:57N 27°43' W 014°46'63 3.0
2018-Dec-08 02:03N 27°42' W 015°57'114.2
2018-Dec-08 02:00N 27°42' W 015°58'4213.7
2018-Dec-07 22:57N 27°54' W 016°43'3813.8
2018-Dec-07 20:11N 28°24' W 017°10'56 3.8
2018-Dec-07 05:31N 29°16' W 017°35'115.7
2018-Dec-07 05:28N 29°17' W 017°35'816.6
2018-Dec-07 05:00N 29°24' W 017°33'816.5
2018-Dec-07 04:29N 29°33' W 017°32'1516.6
2018-Dec-07 03:36N 29°47' W 017°29'116.4
2018-Dec-07 03:31N 29°49' W 017°28'2217.0
2018-Dec-07 02:13N 30°10' W 017°24'4017.2
2018-Dec-06 23:55N 30°50' W 017°16'1518.4
2018-Dec-06 23:05N 31°05' W 017°13'118.5
2018-Dec-06 23:00N 31°06' W 017°13'2319.0
2018-Dec-06 21:48N 31°28' W 017°08'618.9
2018-Dec-06 21:30N 31°34' W 017°07'1019.1
2018-Dec-06 21:00N 31°44' W 017°05'56 3.9
2018-Dec-06 06:41N 32°38' W 016°49'14113.6
2018-Dec-05 20:19N 34°38' W 015°21'3414.2
2018-Dec-05 17:56N 35°09' W 015°05'714.3
2018-Dec-05 17:25N 35°16' W 015°02'714.4
2018-Dec-05 16:57N 35°22' W 014°58'38415.7
2018-Dec-04 16:29N 41°15' W 011°48'1117.3
2018-Dec-04 15:51N 41°26' W 011°42'59716.1
2018-Dec-03 02:46N 49°42' W 003°47'414.5
2018-Dec-03 02:29N 49°44' W 003°42'814.5
2018-Dec-03 01:57N 49°48' W 003°32'614.5
2018-Dec-03 01:31N 49°51' W 003°23'714.9
2018-Dec-03 01:00N 49°54' W 003°12'815.4
2018-Dec-03 00:31N 49°58' W 003°01'815.9
2018-Dec-03 00:01N 50°01' W 002°50'816.4
2018-Dec-02 23:31N 50°04' W 002°38'1817.4
2018-Dec-02 22:28N 50°10' W 002°12'817.8
2018-Dec-02 22:01N 50°14' W 002°00'917.7
2018-Dec-02 21:30N 50°18' W 001°48'917.5
2018-Dec-02 21:00N 50°22' W 001°36'917.2
2018-Dec-02 20:31N 50°26' W 001°24'817.0
2018-Dec-02 20:00N 50°30' W 001°12'816.5
2018-Dec-02 19:31N 50°34' W 001°01'612.9
2018-Dec-02 19:01N 50°40' W 000°58'510.5
2018-Dec-02 18:30N 50°44' W 001°04'917.1
2018-Dec-02 18:00N 50°46' W 001°17'5 9.5
2018-Dec-02 17:30N 50°51' W 001°20'5 9.3
2018-Dec-02 17:01N 50°54' W 001°25'1 1.2
2018-Dec-02 16:26N 50°54' W 001°26'0 0.0
2018-Dec-02 15:50N 50°54' W 001°26'0 0.0
2018-Dec-02 15:17N 50°54' W 001°26'0 0.0
2018-Dec-02 14:56N 50°54' W 001°26'0 0.0
2018-Dec-02 14:29N 50°54' W 001°26'0 0.0
2018-Dec-02 13:50N 50°54' W 001°26'0 0.0
2018-Dec-02 13:26N 50°54' W 001°26'0 0.0
2018-Dec-02 12:56N 50°54' W 001°26'0 0.0
2018-Dec-02 12:29N 50°54' W 001°26'0 0.0
2018-Dec-02 11:59N 50°54' W 001°26'0 0.0
2018-Dec-02 11:02N 50°54' W 001°26'0 0.0
2018-Dec-02 10:56N 50°54' W 001°26'0 0.0
2018-Dec-02 10:23N 50°54' W 001°26'0 0.0
2018-Dec-02 09:50N 50°54' W 001°26'0 0.0
2018-Dec-02 09:29N 50°54' W 001°26'0 0.0
2018-Dec-02 08:59N 50°54' W 001°26'0 0.0
2018-Dec-02 08:29N 50°54' W 001°26'0 0.0
2018-Dec-02 07:59N 50°54' W 001°26'0 0.0
2018-Dec-02 07:23N 50°54' W 001°26'0 0.0
2018-Dec-02 06:56N 50°54' W 001°26'0 0.1
2018-Dec-02 06:30N 50°54' W 001°26'2 4.4
2018-Dec-02 06:00N 50°53' W 001°23'5 9.6
2018-Dec-02 05:30N 50°49' W 001°18'4 8.5
2018-Dec-02 05:00N 50°46' W 001°14'816.7
2018-Dec-02 04:30N 50°43' W 001°01'612.1
2018-Dec-02 04:01N 50°39' W 000°55'611.9
2018-Dec-02 03:30N 50°36' W 000°47'715.0
2018-Dec-02 03:00N 50°34' W 000°36'815.0
2018-Dec-02 02:30N 50°32' W 000°24'815.4
2018-Dec-02 01:58N 50°32' W 000°11'816.3
2018-Dec-02 01:27N 50°33' E 000°02'817.7
2018-Dec-02 01:00N 50°35' E 000°15'918.5
2018-Dec-02 00:30N 50°37' E 000°28'918.7
2018-Dec-02 00:00N 50°41' E 000°42'918.9
2018-Dec-01 23:30N 50°45' E 000°55'918.7
2018-Dec-01 23:00N 50°51' E 001°07'918.3
2018-Dec-01 22:30N 50°56' E 001°19'  

Dump ship's entire track history